sensor_id;sensor_type;location;lat;lon;timestamp;P1;durP1;ratioP1;P2;durP2;ratioP2
7181;SDS011;3632;42.724;23.298;2023-02-28T00:00:08;18.20;;;13.87;;
7181;SDS011;3632;42.724;23.298;2023-02-28T00:02:36;17.73;;;13.37;;
7181;SDS011;3632;42.724;23.298;2023-02-28T00:05:04;18.63;;;13.10;;
7181;SDS011;3632;42.724;23.298;2023-02-28T00:07:31;17.87;;;13.70;;
7181;SDS011;3632;42.724;23.298;2023-02-28T00:09:58;20.70;;;13.83;;
7181;SDS011;3632;42.724;23.298;2023-02-28T00:12:26;18.93;;;13.33;;
7181;SDS011;3632;42.724;23.298;2023-02-28T00:14:54;17.77;;;13.37;;
7181;SDS011;3632;42.724;23.298;2023-02-28T00:17:21;16.73;;;12.73;;
7181;SDS011;3632;42.724;23.298;2023-02-28T00:19:48;17.83;;;13.40;;
7181;SDS011;3632;42.724;23.298;2023-02-28T00:22:16;17.13;;;12.67;;
7181;SDS011;3632;42.724;23.298;2023-02-28T00:24:44;19.23;;;13.43;;
7181;SDS011;3632;42.724;23.298;2023-02-28T00:27:12;18.83;;;13.00;;
7181;SDS011;3632;42.724;23.298;2023-02-28T00:29:39;20.13;;;13.83;;
7181;SDS011;3632;42.724;23.298;2023-02-28T00:32:07;22.77;;;13.97;;
7181;SDS011;3632;42.724;23.298;2023-02-28T00:34:34;19.10;;;13.30;;
7181;SDS011;3632;42.724;23.298;2023-02-28T00:37:02;18.00;;;12.40;;
7181;SDS011;3632;42.724;23.298;2023-02-28T00:39:30;17.07;;;12.57;;
7181;SDS011;3632;42.724;23.298;2023-02-28T00:41:57;16.80;;;12.73;;
7181;SDS011;3632;42.724;23.298;2023-02-28T00:44:24;16.27;;;11.97;;
7181;SDS011;3632;42.724;23.298;2023-02-28T00:46:51;18.87;;;13.00;;
7181;SDS011;3632;42.724;23.298;2023-02-28T00:49:20;19.40;;;13.43;;
7181;SDS011;3632;42.724;23.298;2023-02-28T00:51:47;18.60;;;13.13;;
7181;SDS011;3632;42.724;23.298;2023-02-28T00:54:13;20.67;;;13.43;;
7181;SDS011;3632;42.724;23.298;2023-02-28T00:56:40;22.70;;;14.50;;
7181;SDS011;3632;42.724;23.298;2023-02-28T00:59:07;20.90;;;13.47;;
7181;SDS011;3632;42.724;23.298;2023-02-28T01:01:34;18.57;;;13.20;;
7181;SDS011;3632;42.724;23.298;2023-02-28T01:04:01;20.53;;;13.67;;
7181;SDS011;3632;42.724;23.298;2023-02-28T01:06:29;19.60;;;14.90;;
7181;SDS011;3632;42.724;23.298;2023-02-28T01:08:56;18.47;;;12.83;;
7181;SDS011;3632;42.724;23.298;2023-02-28T01:11:24;18.57;;;14.10;;
7181;SDS011;3632;42.724;23.298;2023-02-28T01:13:51;20.00;;;13.37;;
7181;SDS011;3632;42.724;23.298;2023-02-28T01:16:18;20.23;;;13.90;;
7181;SDS011;3632;42.724;23.298;2023-02-28T01:18:45;17.33;;;13.33;;
7181;SDS011;3632;42.724;23.298;2023-02-28T01:21:13;17.27;;;12.90;;
7181;SDS011;3632;42.724;23.298;2023-02-28T01:23:43;19.57;;;13.07;;
7181;SDS011;3632;42.724;23.298;2023-02-28T01:26:10;17.10;;;12.37;;
7181;SDS011;3632;42.724;23.298;2023-02-28T01:28:40;17.07;;;12.03;;
7181;SDS011;3632;42.724;23.298;2023-02-28T01:31:07;16.43;;;12.10;;
7181;SDS011;3632;42.724;23.298;2023-02-28T01:33:35;16.07;;;12.83;;
7181;SDS011;3632;42.724;23.298;2023-02-28T01:39:25;18.30;;;13.63;;
7181;SDS011;3632;42.724;23.298;2023-02-28T01:41:52;19.87;;;13.73;;
7181;SDS011;3632;42.724;23.298;2023-02-28T01:47:35;17.60;;;12.70;;
7181;SDS011;3632;42.724;23.298;2023-02-28T01:50:05;16.47;;;12.43;;
7181;SDS011;3632;42.724;23.298;2023-02-28T01:52:37;17.43;;;12.50;;
7181;SDS011;3632;42.724;23.298;2023-02-28T01:55:05;14.87;;;11.83;;
7181;SDS011;3632;42.724;23.298;2023-02-28T01:57:35;17.70;;;12.90;;
7181;SDS011;3632;42.724;23.298;2023-02-28T02:00:07;20.57;;;12.73;;
7181;SDS011;3632;42.724;23.298;2023-02-28T02:02:38;16.83;;;12.57;;
7181;SDS011;3632;42.724;23.298;2023-02-28T02:05:07;18.17;;;12.13;;
7181;SDS011;3632;42.724;23.298;2023-02-28T02:07:37;15.67;;;11.93;;
7181;SDS011;3632;42.724;23.298;2023-02-28T02:10:10;15.37;;;11.97;;
7181;SDS011;3632;42.724;23.298;2023-02-28T02:12:51;13.50;;;10.90;;
7181;SDS011;3632;42.724;23.298;2023-02-28T02:15:34;18.73;;;12.47;;
7181;SDS011;3632;42.724;23.298;2023-02-28T02:18:08;15.03;;;11.60;;
7181;SDS011;3632;42.724;23.298;2023-02-28T02:24:02;20.60;;;12.60;;
7181;SDS011;3632;42.724;23.298;2023-02-28T02:26:53;18.33;;;12.70;;
7181;SDS011;3632;42.724;23.298;2023-02-28T02:29:36;17.10;;;12.37;;
7181;SDS011;3632;42.724;23.298;2023-02-28T02:32:26;19.87;;;13.23;;
7181;SDS011;3632;42.724;23.298;2023-02-28T02:35:10;17.20;;;11.87;;
7181;SDS011;3632;42.724;23.298;2023-02-28T02:37:42;19.00;;;12.20;;
7181;SDS011;3632;42.724;23.298;2023-02-28T02:40:13;18.93;;;13.00;;
7181;SDS011;3632;42.724;23.298;2023-02-28T02:42:44;18.87;;;12.87;;
7181;SDS011;3632;42.724;23.298;2023-02-28T02:45:17;18.40;;;12.73;;
7181;SDS011;3632;42.724;23.298;2023-02-28T02:47:50;17.63;;;11.93;;
7181;SDS011;3632;42.724;23.298;2023-02-28T02:50:21;18.20;;;12.73;;
7181;SDS011;3632;42.724;23.298;2023-02-28T02:52:53;16.47;;;12.03;;
7181;SDS011;3632;42.724;23.298;2023-02-28T02:55:23;17.77;;;12.50;;
7181;SDS011;3632;42.724;23.298;2023-02-28T02:57:52;18.23;;;12.67;;
7181;SDS011;3632;42.724;23.298;2023-02-28T03:00:25;16.93;;;12.87;;
7181;SDS011;3632;42.724;23.298;2023-02-28T03:02:56;14.20;;;11.60;;
7181;SDS011;3632;42.724;23.298;2023-02-28T03:05:28;15.50;;;11.57;;
7181;SDS011;3632;42.724;23.298;2023-02-28T03:08:02;16.57;;;10.90;;
7181;SDS011;3632;42.724;23.298;2023-02-28T03:10:34;14.53;;;10.50;;
7181;SDS011;3632;42.724;23.298;2023-02-28T03:13:11;14.97;;;10.70;;
7181;SDS011;3632;42.724;23.298;2023-02-28T03:15:57;14.40;;;10.20;;
7181;SDS011;3632;42.724;23.298;2023-02-28T03:18:36;15.10;;;10.90;;
7181;SDS011;3632;42.724;23.298;2023-02-28T03:21:12;14.57;;;10.27;;
7181;SDS011;3632;42.724;23.298;2023-02-28T03:23:48;15.93;;;11.13;;
7181;SDS011;3632;42.724;23.298;2023-02-28T03:26:21;15.63;;;11.47;;
7181;SDS011;3632;42.724;23.298;2023-02-28T03:28:52;21.43;;;12.67;;
7181;SDS011;3632;42.724;23.298;2023-02-28T03:31:27;18.23;;;13.37;;
7181;SDS011;3632;42.724;23.298;2023-02-28T03:34:00;18.00;;;13.17;;
7181;SDS011;3632;42.724;23.298;2023-02-28T03:36:35;19.33;;;12.47;;
7181;SDS011;3632;42.724;23.298;2023-02-28T03:39:09;16.43;;;11.67;;
7181;SDS011;3632;42.724;23.298;2023-02-28T03:41:42;17.27;;;11.77;;
7181;SDS011;3632;42.724;23.298;2023-02-28T03:44:15;17.00;;;11.73;;
7181;SDS011;3632;42.724;23.298;2023-02-28T03:46:48;15.90;;;11.47;;
7181;SDS011;3632;42.724;23.298;2023-02-28T03:49:20;15.57;;;11.60;;
7181;SDS011;3632;42.724;23.298;2023-02-28T03:51:52;15.37;;;11.47;;
7181;SDS011;3632;42.724;23.298;2023-02-28T03:54:25;14.30;;;11.67;;
7181;SDS011;3632;42.724;23.298;2023-02-28T03:56:57;16.23;;;11.23;;
7181;SDS011;3632;42.724;23.298;2023-02-28T03:59:30;15.47;;;11.40;;
7181;SDS011;3632;42.724;23.298;2023-02-28T04:02:03;16.43;;;11.97;;
7181;SDS011;3632;42.724;23.298;2023-02-28T04:04:30;18.40;;;13.10;;
7181;SDS011;3632;42.724;23.298;2023-02-28T04:07:02;17.07;;;12.50;;
7181;SDS011;3632;42.724;23.298;2023-02-28T04:09:31;17.10;;;12.40;;
7181;SDS011;3632;42.724;23.298;2023-02-28T04:11:58;18.93;;;13.17;;
7181;SDS011;3632;42.724;23.298;2023-02-28T04:14:25;15.37;;;11.53;;
7181;SDS011;3632;42.724;23.298;2023-02-28T04:16:52;16.83;;;11.70;;
7181;SDS011;3632;42.724;23.298;2023-02-28T04:19:19;15.77;;;12.10;;
7181;SDS011;3632;42.724;23.298;2023-02-28T04:21:47;17.93;;;11.97;;
7181;SDS011;3632;42.724;23.298;2023-02-28T04:24:17;18.43;;;12.50;;
7181;SDS011;3632;42.724;23.298;2023-02-28T04:26:45;18.10;;;12.33;;
7181;SDS011;3632;42.724;23.298;2023-02-28T04:29:14;16.37;;;12.47;;
7181;SDS011;3632;42.724;23.298;2023-02-28T04:31:46;16.90;;;12.57;;
7181;SDS011;3632;42.724;23.298;2023-02-28T04:34:12;16.50;;;12.93;;
7181;SDS011;3632;42.724;23.298;2023-02-28T04:36:40;17.23;;;12.63;;
7181;SDS011;3632;42.724;23.298;2023-02-28T04:39:07;20.03;;;13.67;;
7181;SDS011;3632;42.724;23.298;2023-02-28T04:41:36;19.10;;;13.03;;
7181;SDS011;3632;42.724;23.298;2023-02-28T04:44:03;17.07;;;12.93;;
7181;SDS011;3632;42.724;23.298;2023-02-28T04:46:30;17.13;;;12.47;;
7181;SDS011;3632;42.724;23.298;2023-02-28T04:48:56;19.23;;;12.10;;
7181;SDS011;3632;42.724;23.298;2023-02-28T04:51:24;18.17;;;11.93;;
7181;SDS011;3632;42.724;23.298;2023-02-28T04:53:51;16.00;;;12.27;;
7181;SDS011;3632;42.724;23.298;2023-02-28T04:56:19;16.33;;;11.90;;
7181;SDS011;3632;42.724;23.298;2023-02-28T04:58:47;19.10;;;13.10;;
7181;SDS011;3632;42.724;23.298;2023-02-28T05:01:16;18.10;;;13.53;;
7181;SDS011;3632;42.724;23.298;2023-02-28T05:03:48;20.73;;;14.73;;
7181;SDS011;3632;42.724;23.298;2023-02-28T05:06:15;23.07;;;18.00;;
7181;SDS011;3632;42.724;23.298;2023-02-28T05:08:42;38.10;;;25.87;;
7181;SDS011;3632;42.724;23.298;2023-02-28T05:11:12;29.07;;;17.17;;
7181;SDS011;3632;42.724;23.298;2023-02-28T05:13:42;24.77;;;15.80;;
7181;SDS011;3632;42.724;23.298;2023-02-28T05:16:10;27.10;;;16.03;;
7181;SDS011;3632;42.724;23.298;2023-02-28T05:18:37;22.67;;;15.47;;
7181;SDS011;3632;42.724;23.298;2023-02-28T05:21:04;23.03;;;15.33;;
7181;SDS011;3632;42.724;23.298;2023-02-28T05:23:31;28.47;;;18.07;;
7181;SDS011;3632;42.724;23.298;2023-02-28T05:25:58;30.37;;;18.00;;
7181;SDS011;3632;42.724;23.298;2023-02-28T05:28:25;28.23;;;18.03;;
7181;SDS011;3632;42.724;23.298;2023-02-28T05:30:52;33.90;;;19.10;;
7181;SDS011;3632;42.724;23.298;2023-02-28T05:33:20;32.00;;;18.90;;
7181;SDS011;3632;42.724;23.298;2023-02-28T05:35:46;33.73;;;18.83;;
7181;SDS011;3632;42.724;23.298;2023-02-28T05:38:13;37.07;;;19.60;;
7181;SDS011;3632;42.724;23.298;2023-02-28T05:40:40;36.70;;;19.43;;
7181;SDS011;3632;42.724;23.298;2023-02-28T05:43:08;35.03;;;19.40;;
7181;SDS011;3632;42.724;23.298;2023-02-28T05:45:36;36.73;;;20.00;;
7181;SDS011;3632;42.724;23.298;2023-02-28T05:48:03;31.87;;;18.50;;
7181;SDS011;3632;42.724;23.298;2023-02-28T05:50:31;30.43;;;19.20;;
7181;SDS011;3632;42.724;23.298;2023-02-28T05:52:58;31.33;;;19.87;;
7181;SDS011;3632;42.724;23.298;2023-02-28T05:55:25;30.57;;;19.70;;
7181;SDS011;3632;42.724;23.298;2023-02-28T05:57:52;39.50;;;25.53;;
7181;SDS011;3632;42.724;23.298;2023-02-28T06:00:19;38.17;;;23.50;;
7181;SDS011;3632;42.724;23.298;2023-02-28T06:02:46;40.20;;;24.80;;
7181;SDS011;3632;42.724;23.298;2023-02-28T06:05:13;35.63;;;21.60;;
7181;SDS011;3632;42.724;23.298;2023-02-28T06:07:42;33.47;;;21.10;;
7181;SDS011;3632;42.724;23.298;2023-02-28T06:10:10;30.97;;;20.37;;
7181;SDS011;3632;42.724;23.298;2023-02-28T06:12:38;44.90;;;23.73;;
7181;SDS011;3632;42.724;23.298;2023-02-28T06:15:06;35.60;;;23.20;;
7181;SDS011;3632;42.724;23.298;2023-02-28T06:17:34;38.70;;;25.17;;
7181;SDS011;3632;42.724;23.298;2023-02-28T06:20:01;43.67;;;25.60;;
7181;SDS011;3632;42.724;23.298;2023-02-28T06:22:28;48.20;;;27.40;;
7181;SDS011;3632;42.724;23.298;2023-02-28T06:24:56;53.77;;;30.90;;
7181;SDS011;3632;42.724;23.298;2023-02-28T06:27:23;58.00;;;30.97;;
7181;SDS011;3632;42.724;23.298;2023-02-28T06:29:53;62.80;;;30.40;;
7181;SDS011;3632;42.724;23.298;2023-02-28T06:32:20;57.53;;;30.40;;
7181;SDS011;3632;42.724;23.298;2023-02-28T06:34:47;55.37;;;29.13;;
7181;SDS011;3632;42.724;23.298;2023-02-28T06:37:15;55.30;;;29.07;;
7181;SDS011;3632;42.724;23.298;2023-02-28T06:39:42;52.33;;;28.50;;
7181;SDS011;3632;42.724;23.298;2023-02-28T06:42:11;50.77;;;29.00;;
7181;SDS011;3632;42.724;23.298;2023-02-28T06:44:38;54.07;;;27.90;;
7181;SDS011;3632;42.724;23.298;2023-02-28T06:47:05;53.67;;;28.07;;
7181;SDS011;3632;42.724;23.298;2023-02-28T06:49:33;55.53;;;29.00;;
7181;SDS011;3632;42.724;23.298;2023-02-28T06:52:01;48.40;;;27.40;;
7181;SDS011;3632;42.724;23.298;2023-02-28T06:54:28;46.40;;;26.93;;
7181;SDS011;3632;42.724;23.298;2023-02-28T06:56:55;46.77;;;26.23;;
7181;SDS011;3632;42.724;23.298;2023-02-28T06:59:23;50.23;;;28.67;;
7181;SDS011;3632;42.724;23.298;2023-02-28T07:01:50;51.83;;;30.33;;
7181;SDS011;3632;42.724;23.298;2023-02-28T07:04:17;51.63;;;29.67;;
7181;SDS011;3632;42.724;23.298;2023-02-28T07:06:43;46.93;;;28.70;;
7181;SDS011;3632;42.724;23.298;2023-02-28T07:09:10;48.70;;;28.90;;
7181;SDS011;3632;42.724;23.298;2023-02-28T07:11:37;44.63;;;28.07;;
7181;SDS011;3632;42.724;23.298;2023-02-28T07:14:04;48.67;;;28.97;;
7181;SDS011;3632;42.724;23.298;2023-02-28T07:16:32;43.60;;;26.67;;
7181;SDS011;3632;42.724;23.298;2023-02-28T07:18:59;44.50;;;27.23;;
7181;SDS011;3632;42.724;23.298;2023-02-28T07:21:25;49.33;;;31.77;;
7181;SDS011;3632;42.724;23.298;2023-02-28T07:23:52;56.57;;;33.23;;
7181;SDS011;3632;42.724;23.298;2023-02-28T07:26:19;54.77;;;32.27;;
7181;SDS011;3632;42.724;23.298;2023-02-28T07:28:47;51.93;;;30.10;;
7181;SDS011;3632;42.724;23.298;2023-02-28T07:31:15;50.17;;;29.50;;
7181;SDS011;3632;42.724;23.298;2023-02-28T07:33:44;45.20;;;28.77;;
7181;SDS011;3632;42.724;23.298;2023-02-28T07:36:12;51.10;;;30.63;;
7181;SDS011;3632;42.724;23.298;2023-02-28T07:38:41;48.60;;;29.40;;
7181;SDS011;3632;42.724;23.298;2023-02-28T07:41:09;57.60;;;31.03;;
7181;SDS011;3632;42.724;23.298;2023-02-28T07:43:36;54.83;;;32.03;;
7181;SDS011;3632;42.724;23.298;2023-02-28T07:46:03;60.63;;;35.07;;
7181;SDS011;3632;42.724;23.298;2023-02-28T07:48:31;91.00;;;43.20;;
7181;SDS011;3632;42.724;23.298;2023-02-28T07:51:00;56.17;;;34.60;;
7181;SDS011;3632;42.724;23.298;2023-02-28T07:53:27;62.30;;;39.17;;
7181;SDS011;3632;42.724;23.298;2023-02-28T07:55:55;57.63;;;34.10;;
7181;SDS011;3632;42.724;23.298;2023-02-28T07:58:22;55.70;;;34.33;;
7181;SDS011;3632;42.724;23.298;2023-02-28T08:00:50;58.80;;;34.10;;
7181;SDS011;3632;42.724;23.298;2023-02-28T08:03:17;57.87;;;34.63;;
7181;SDS011;3632;42.724;23.298;2023-02-28T08:05:45;53.77;;;32.83;;
7181;SDS011;3632;42.724;23.298;2023-02-28T08:08:14;50.53;;;31.90;;
7181;SDS011;3632;42.724;23.298;2023-02-28T08:10:42;49.27;;;32.53;;
7181;SDS011;3632;42.724;23.298;2023-02-28T08:13:09;47.43;;;31.60;;
7181;SDS011;3632;42.724;23.298;2023-02-28T08:15:36;50.07;;;31.53;;
7181;SDS011;3632;42.724;23.298;2023-02-28T08:18:03;45.43;;;30.10;;
7181;SDS011;3632;42.724;23.298;2023-02-28T08:20:29;50.73;;;31.00;;
7181;SDS011;3632;42.724;23.298;2023-02-28T08:22:56;46.07;;;30.53;;
7181;SDS011;3632;42.724;23.298;2023-02-28T08:25:24;46.97;;;29.20;;
7181;SDS011;3632;42.724;23.298;2023-02-28T08:31:14;47.03;;;29.63;;
7181;SDS011;3632;42.724;23.298;2023-02-28T08:33:42;43.77;;;28.83;;
7181;SDS011;3632;42.724;23.298;2023-02-28T08:36:10;46.53;;;29.20;;
7181;SDS011;3632;42.724;23.298;2023-02-28T08:38:37;44.10;;;28.43;;
7181;SDS011;3632;42.724;23.298;2023-02-28T08:41:06;39.80;;;28.10;;
7181;SDS011;3632;42.724;23.298;2023-02-28T08:43:35;39.77;;;27.83;;
7181;SDS011;3632;42.724;23.298;2023-02-28T08:46:02;40.73;;;27.67;;
7181;SDS011;3632;42.724;23.298;2023-02-28T08:48:31;40.80;;;28.47;;
7181;SDS011;3632;42.724;23.298;2023-02-28T08:50:59;42.07;;;28.43;;
7181;SDS011;3632;42.724;23.298;2023-02-28T08:53:27;39.77;;;27.67;;
7181;SDS011;3632;42.724;23.298;2023-02-28T08:55:58;37.37;;;26.43;;
7181;SDS011;3632;42.724;23.298;2023-02-28T08:58:27;37.50;;;25.60;;
7181;SDS011;3632;42.724;23.298;2023-02-28T09:00:54;36.93;;;26.50;;
7181;SDS011;3632;42.724;23.298;2023-02-28T09:03:22;39.33;;;25.90;;
7181;SDS011;3632;42.724;23.298;2023-02-28T09:05:56;38.17;;;24.70;;
7181;SDS011;3632;42.724;23.298;2023-02-28T09:08:26;31.87;;;23.43;;
7181;SDS011;3632;42.724;23.298;2023-02-28T09:10:55;37.93;;;24.47;;
7181;SDS011;3632;42.724;23.298;2023-02-28T09:13:23;36.53;;;25.30;;
7181;SDS011;3632;42.724;23.298;2023-02-28T09:15:51;38.93;;;24.13;;
7181;SDS011;3632;42.724;23.298;2023-02-28T09:18:18;43.67;;;25.70;;
7181;SDS011;3632;42.724;23.298;2023-02-28T09:20:46;37.27;;;25.43;;
7181;SDS011;3632;42.724;23.298;2023-02-28T09:23:13;38.90;;;25.40;;
7181;SDS011;3632;42.724;23.298;2023-02-28T09:25:45;36.27;;;25.43;;
7181;SDS011;3632;42.724;23.298;2023-02-28T09:28:12;38.27;;;25.57;;
7181;SDS011;3632;42.724;23.298;2023-02-28T09:30:42;36.60;;;25.90;;
7181;SDS011;3632;42.724;23.298;2023-02-28T09:33:11;39.83;;;25.53;;
7181;SDS011;3632;42.724;23.298;2023-02-28T09:35:38;35.73;;;25.67;;
7181;SDS011;3632;42.724;23.298;2023-02-28T09:38:05;37.13;;;25.47;;
7181;SDS011;3632;42.724;23.298;2023-02-28T09:40:35;38.80;;;26.53;;
7181;SDS011;3632;42.724;23.298;2023-02-28T09:43:04;39.70;;;26.43;;
7181;SDS011;3632;42.724;23.298;2023-02-28T09:45:32;40.33;;;28.10;;
7181;SDS011;3632;42.724;23.298;2023-02-28T09:48:02;39.93;;;27.27;;
7181;SDS011;3632;42.724;23.298;2023-02-28T09:50:35;43.63;;;30.20;;
7181;SDS011;3632;42.724;23.298;2023-02-28T09:53:10;42.03;;;28.00;;
7181;SDS011;3632;42.724;23.298;2023-02-28T09:55:44;38.43;;;26.00;;
7181;SDS011;3632;42.724;23.298;2023-02-28T09:58:15;39.40;;;27.73;;
7181;SDS011;3632;42.724;23.298;2023-02-28T10:00:46;34.87;;;24.37;;
7181;SDS011;3632;42.724;23.298;2023-02-28T10:03:25;39.07;;;24.80;;
7181;SDS011;3632;42.724;23.298;2023-02-28T10:05:59;37.40;;;22.87;;
7181;SDS011;3632;42.724;23.298;2023-02-28T10:08:34;35.23;;;23.70;;
7181;SDS011;3632;42.724;23.298;2023-02-28T10:11:07;26.90;;;19.43;;
7181;SDS011;3632;42.724;23.298;2023-02-28T10:13:39;24.23;;;13.60;;
7181;SDS011;3632;42.724;23.298;2023-02-28T10:16:16;25.77;;;13.27;;
7181;SDS011;3632;42.724;23.298;2023-02-28T10:18:47;22.77;;;13.07;;
7181;SDS011;3632;42.724;23.298;2023-02-28T10:21:21;29.20;;;14.93;;
7181;SDS011;3632;42.724;23.298;2023-02-28T10:23:53;22.13;;;13.90;;
7181;SDS011;3632;42.724;23.298;2023-02-28T10:26:28;32.90;;;16.10;;
7181;SDS011;3632;42.724;23.298;2023-02-28T10:28:58;25.00;;;13.93;;
7181;SDS011;3632;42.724;23.298;2023-02-28T10:31:26;18.63;;;12.60;;
7181;SDS011;3632;42.724;23.298;2023-02-28T10:33:52;24.17;;;12.87;;
7181;SDS011;3632;42.724;23.298;2023-02-28T10:36:21;25.33;;;14.10;;
7181;SDS011;3632;42.724;23.298;2023-02-28T10:38:48;18.57;;;12.43;;
7181;SDS011;3632;42.724;23.298;2023-02-28T10:41:16;23.63;;;12.50;;
7181;SDS011;3632;42.724;23.298;2023-02-28T10:43:53;22.60;;;12.70;;
7181;SDS011;3632;42.724;23.298;2023-02-28T10:46:39;21.03;;;12.37;;
7181;SDS011;3632;42.724;23.298;2023-02-28T10:49:13;24.50;;;12.13;;
7181;SDS011;3632;42.724;23.298;2023-02-28T10:51:44;23.10;;;12.23;;
7181;SDS011;3632;42.724;23.298;2023-02-28T10:54:16;19.83;;;10.90;;
7181;SDS011;3632;42.724;23.298;2023-02-28T10:56:45;20.37;;;11.63;;
7181;SDS011;3632;42.724;23.298;2023-02-28T10:59:32;19.97;;;11.00;;
7181;SDS011;3632;42.724;23.298;2023-02-28T11:01:58;26.43;;;13.90;;
7181;SDS011;3632;42.724;23.298;2023-02-28T11:04:32;26.73;;;14.30;;
7181;SDS011;3632;42.724;23.298;2023-02-28T11:07:04;20.07;;;12.93;;
7181;SDS011;3632;42.724;23.298;2023-02-28T11:09:41;22.93;;;14.63;;
7181;SDS011;3632;42.724;23.298;2023-02-28T11:12:19;26.33;;;12.57;;
7181;SDS011;3632;42.724;23.298;2023-02-28T11:14:49;23.53;;;11.30;;
7181;SDS011;3632;42.724;23.298;2023-02-28T11:17:19;24.63;;;11.30;;
7181;SDS011;3632;42.724;23.298;2023-02-28T11:19:49;20.27;;;12.43;;
7181;SDS011;3632;42.724;23.298;2023-02-28T11:22:21;21.10;;;13.60;;
7181;SDS011;3632;42.724;23.298;2023-02-28T11:24:53;24.27;;;14.03;;
7181;SDS011;3632;42.724;23.298;2023-02-28T11:27:45;24.57;;;12.97;;
7181;SDS011;3632;42.724;23.298;2023-02-28T11:30:27;24.73;;;14.17;;
7181;SDS011;3632;42.724;23.298;2023-02-28T11:32:57;20.70;;;13.60;;
7181;SDS011;3632;42.724;23.298;2023-02-28T11:35:25;23.67;;;12.93;;
7181;SDS011;3632;42.724;23.298;2023-02-28T11:37:56;23.77;;;11.43;;
7181;SDS011;3632;42.724;23.298;2023-02-28T11:40:25;22.27;;;11.20;;
7181;SDS011;3632;42.724;23.298;2023-02-28T11:43:02;18.97;;;11.60;;
7181;SDS011;3632;42.724;23.298;2023-02-28T11:45:41;23.80;;;15.67;;
7181;SDS011;3632;42.724;23.298;2023-02-28T11:48:17;22.77;;;13.23;;
7181;SDS011;3632;42.724;23.298;2023-02-28T11:50:54;22.07;;;12.67;;
7181;SDS011;3632;42.724;23.298;2023-02-28T11:53:35;20.40;;;11.30;;
7181;SDS011;3632;42.724;23.298;2023-02-28T11:56:15;21.60;;;12.93;;
7181;SDS011;3632;42.724;23.298;2023-02-28T11:58:52;22.13;;;12.40;;
7181;SDS011;3632;42.724;23.298;2023-02-28T12:01:35;24.13;;;12.63;;
7181;SDS011;3632;42.724;23.298;2023-02-28T12:04:14;23.63;;;14.70;;
7181;SDS011;3632;42.724;23.298;2023-02-28T12:06:52;20.13;;;12.87;;
7181;SDS011;3632;42.724;23.298;2023-02-28T12:09:32;25.47;;;12.00;;
7181;SDS011;3632;42.724;23.298;2023-02-28T12:12:08;18.43;;;11.93;;
7181;SDS011;3632;42.724;23.298;2023-02-28T12:14:49;21.33;;;11.77;;
7181;SDS011;3632;42.724;23.298;2023-02-28T12:17:29;22.87;;;11.63;;
7181;SDS011;3632;42.724;23.298;2023-02-28T12:20:05;22.00;;;11.53;;
7181;SDS011;3632;42.724;23.298;2023-02-28T12:22:46;23.70;;;10.83;;
7181;SDS011;3632;42.724;23.298;2023-02-28T12:25:32;19.83;;;11.50;;
7181;SDS011;3632;42.724;23.298;2023-02-28T12:28:16;21.00;;;11.07;;
7181;SDS011;3632;42.724;23.298;2023-02-28T12:30:52;23.10;;;10.47;;
7181;SDS011;3632;42.724;23.298;2023-02-28T12:33:24;17.40;;;10.40;;
7181;SDS011;3632;42.724;23.298;2023-02-28T12:35:59;21.60;;;10.70;;
7181;SDS011;3632;42.724;23.298;2023-02-28T12:38:31;17.60;;;9.10;;
7181;SDS011;3632;42.724;23.298;2023-02-28T12:41:04;19.03;;;10.93;;
7181;SDS011;3632;42.724;23.298;2023-02-28T12:43:37;21.77;;;12.10;;
7181;SDS011;3632;42.724;23.298;2023-02-28T12:46:09;20.23;;;10.43;;
7181;SDS011;3632;42.724;23.298;2023-02-28T12:48:39;19.77;;;10.57;;
7181;SDS011;3632;42.724;23.298;2023-02-28T12:51:08;20.77;;;10.80;;
7181;SDS011;3632;42.724;23.298;2023-02-28T12:53:41;21.57;;;10.37;;
7181;SDS011;3632;42.724;23.298;2023-02-28T12:56:20;25.60;;;10.87;;
7181;SDS011;3632;42.724;23.298;2023-02-28T12:58:56;19.77;;;10.57;;
7181;SDS011;3632;42.724;23.298;2023-02-28T13:01:32;17.43;;;10.30;;
7181;SDS011;3632;42.724;23.298;2023-02-28T13:07:24;21.93;;;10.57;;
7181;SDS011;3632;42.724;23.298;2023-02-28T13:10:08;19.47;;;10.67;;
7181;SDS011;3632;42.724;23.298;2023-02-28T13:12:37;22.23;;;11.70;;
7181;SDS011;3632;42.724;23.298;2023-02-28T13:15:16;17.70;;;10.37;;
7181;SDS011;3632;42.724;23.298;2023-02-28T13:17:47;21.73;;;11.07;;
7181;SDS011;3632;42.724;23.298;2023-02-28T13:20:17;19.03;;;10.40;;
7181;SDS011;3632;42.724;23.298;2023-02-28T13:22:46;22.90;;;10.63;;
7181;SDS011;3632;42.724;23.298;2023-02-28T13:31:33;18.37;;;10.53;;
7181;SDS011;3632;42.724;23.298;2023-02-28T13:34:38;25.67;;;11.03;;
7181;SDS011;3632;42.724;23.298;2023-02-28T13:40:07;19.03;;;11.37;;
7181;SDS011;3632;42.724;23.298;2023-02-28T13:42:54;21.70;;;10.70;;
7181;SDS011;3632;42.724;23.298;2023-02-28T13:45:22;20.43;;;11.00;;
7181;SDS011;3632;42.724;23.298;2023-02-28T13:47:55;19.93;;;11.23;;
7181;SDS011;3632;42.724;23.298;2023-02-28T13:50:29;16.83;;;10.50;;
7181;SDS011;3632;42.724;23.298;2023-02-28T13:53:19;20.97;;;10.00;;
7181;SDS011;3632;42.724;23.298;2023-02-28T13:55:59;23.07;;;10.03;;
7181;SDS011;3632;42.724;23.298;2023-02-28T13:58:41;18.77;;;9.53;;
7181;SDS011;3632;42.724;23.298;2023-02-28T14:01:26;24.20;;;9.90;;
7181;SDS011;3632;42.724;23.298;2023-02-28T14:04:09;19.00;;;9.77;;
7181;SDS011;3632;42.724;23.298;2023-02-28T14:06:54;21.33;;;11.53;;
7181;SDS011;3632;42.724;23.298;2023-02-28T14:09:23;20.57;;;9.90;;
7181;SDS011;3632;42.724;23.298;2023-02-28T14:11:52;20.47;;;10.00;;
7181;SDS011;3632;42.724;23.298;2023-02-28T14:17:27;20.63;;;10.47;;
7181;SDS011;3632;42.724;23.298;2023-02-28T14:19:56;17.40;;;9.87;;
7181;SDS011;3632;42.724;23.298;2023-02-28T14:22:40;18.57;;;9.90;;
7181;SDS011;3632;42.724;23.298;2023-02-28T14:25:18;21.20;;;9.47;;
7181;SDS011;3632;42.724;23.298;2023-02-28T14:27:57;22.30;;;10.03;;
7181;SDS011;3632;42.724;23.298;2023-02-28T14:30:52;17.27;;;10.60;;
7181;SDS011;3632;42.724;23.298;2023-02-28T14:33:35;17.23;;;10.73;;
7181;SDS011;3632;42.724;23.298;2023-02-28T14:36:16;22.70;;;10.00;;
7181;SDS011;3632;42.724;23.298;2023-02-28T14:38:47;19.73;;;11.20;;
7181;SDS011;3632;42.724;23.298;2023-02-28T14:41:22;17.90;;;10.60;;
7181;SDS011;3632;42.724;23.298;2023-02-28T14:43:54;19.27;;;11.07;;
7181;SDS011;3632;42.724;23.298;2023-02-28T14:46:23;21.77;;;11.33;;
7181;SDS011;3632;42.724;23.298;2023-02-28T14:48:54;14.43;;;10.10;;
7181;SDS011;3632;42.724;23.298;2023-02-28T14:51:24;17.83;;;11.20;;
7181;SDS011;3632;42.724;23.298;2023-02-28T14:53:52;20.33;;;11.63;;
7181;SDS011;3632;42.724;23.298;2023-02-28T14:56:25;24.40;;;11.03;;
7181;SDS011;3632;42.724;23.298;2023-02-28T14:58:57;18.03;;;11.23;;
7181;SDS011;3632;42.724;23.298;2023-02-28T15:01:24;20.57;;;11.03;;
7181;SDS011;3632;42.724;23.298;2023-02-28T15:03:59;18.73;;;10.93;;
7181;SDS011;3632;42.724;23.298;2023-02-28T15:06:29;20.73;;;10.93;;
7181;SDS011;3632;42.724;23.298;2023-02-28T15:09:06;20.83;;;11.30;;
7181;SDS011;3632;42.724;23.298;2023-02-28T15:11:34;22.73;;;11.40;;
7181;SDS011;3632;42.724;23.298;2023-02-28T15:14:01;20.23;;;11.13;;
7181;SDS011;3632;42.724;23.298;2023-02-28T15:16:29;19.17;;;10.63;;
7181;SDS011;3632;42.724;23.298;2023-02-28T15:19:01;12.60;;;10.40;;
7181;SDS011;3632;42.724;23.298;2023-02-28T15:21:34;14.93;;;9.80;;
7181;SDS011;3632;42.724;23.298;2023-02-28T15:24:03;13.73;;;10.23;;
7181;SDS011;3632;42.724;23.298;2023-02-28T15:26:34;16.43;;;10.17;;